sensor_id;sensor_type;location;lat;lon;timestamp;P1;durP1;ratioP1;P2;durP2;ratioP2
27833;SDS011;15200;50.570;7.244;2023-08-24T00:00:20;5.87;;;3.12;;
27833;SDS011;15200;50.570;7.244;2023-08-24T00:02:47;5.60;;;2.80;;
27833;SDS011;15200;50.570;7.244;2023-08-24T00:05:14;7.28;;;3.17;;
27833;SDS011;15200;50.570;7.244;2023-08-24T00:07:42;5.70;;;3.45;;
27833;SDS011;15200;50.570;7.244;2023-08-24T00:10:09;7.47;;;3.00;;
27833;SDS011;15200;50.570;7.244;2023-08-24T00:12:36;10.23;;;3.17;;
27833;SDS011;15200;50.570;7.244;2023-08-24T00:15:07;5.33;;;2.77;;
27833;SDS011;15200;50.570;7.244;2023-08-24T00:17:35;7.60;;;3.10;;
27833;SDS011;15200;50.570;7.244;2023-08-24T00:20:02;5.83;;;2.70;;
27833;SDS011;15200;50.570;7.244;2023-08-24T00:22:30;6.87;;;2.90;;
27833;SDS011;15200;50.570;7.244;2023-08-24T00:24:58;7.37;;;3.15;;
27833;SDS011;15200;50.570;7.244;2023-08-24T00:27:25;4.87;;;2.72;;
27833;SDS011;15200;50.570;7.244;2023-08-24T00:29:52;6.03;;;2.77;;
27833;SDS011;15200;50.570;7.244;2023-08-24T00:32:21;8.73;;;3.10;;
27833;SDS011;15200;50.570;7.244;2023-08-24T00:34:48;9.75;;;3.15;;
27833;SDS011;15200;50.570;7.244;2023-08-24T00:37:16;5.72;;;2.72;;
27833;SDS011;15200;50.570;7.244;2023-08-24T00:39:43;5.53;;;2.83;;
27833;SDS011;15200;50.570;7.244;2023-08-24T00:42:10;6.95;;;2.47;;
27833;SDS011;15200;50.570;7.244;2023-08-24T00:44:39;7.12;;;2.77;;
27833;SDS011;15200;50.570;7.244;2023-08-24T00:47:07;6.72;;;2.85;;
27833;SDS011;15200;50.570;7.244;2023-08-24T00:49:35;4.80;;;2.80;;
27833;SDS011;15200;50.570;7.244;2023-08-24T00:52:02;6.10;;;3.25;;
27833;SDS011;15200;50.570;7.244;2023-08-24T00:54:30;8.18;;;2.72;;
27833;SDS011;15200;50.570;7.244;2023-08-24T00:56:57;3.40;;;2.67;;
27833;SDS011;15200;50.570;7.244;2023-08-24T00:59:25;3.37;;;2.75;;
27833;SDS011;15200;50.570;7.244;2023-08-24T01:01:52;5.67;;;2.72;;
27833;SDS011;15200;50.570;7.244;2023-08-24T01:04:20;5.62;;;2.80;;
27833;SDS011;15200;50.570;7.244;2023-08-24T01:06:47;4.90;;;3.10;;
27833;SDS011;15200;50.570;7.244;2023-08-24T01:09:15;7.95;;;3.10;;
27833;SDS011;15200;50.570;7.244;2023-08-24T01:11:45;4.58;;;2.70;;
27833;SDS011;15200;50.570;7.244;2023-08-24T01:14:18;3.62;;;2.75;;
27833;SDS011;15200;50.570;7.244;2023-08-24T01:16:44;4.55;;;2.60;;
27833;SDS011;15200;50.570;7.244;2023-08-24T01:19:55;8.00;;;3.00;;
27833;SDS011;15200;50.570;7.244;2023-08-24T01:21:44;4.28;;;2.40;;
27833;SDS011;15200;50.570;7.244;2023-08-24T01:24:30;5.70;;;3.12;;
27833;SDS011;15200;50.570;7.244;2023-08-24T01:26:43;3.25;;;2.87;;
27833;SDS011;15200;50.570;7.244;2023-08-24T01:29:11;4.97;;;2.75;;
27833;SDS011;15200;50.570;7.244;2023-08-24T01:31:38;6.50;;;2.92;;
27833;SDS011;15200;50.570;7.244;2023-08-24T01:34:06;4.33;;;2.55;;
27833;SDS011;15200;50.570;7.244;2023-08-24T01:36:33;6.50;;;2.98;;
27833;SDS011;15200;50.570;7.244;2023-08-24T01:39:09;6.25;;;2.95;;
27833;SDS011;15200;50.570;7.244;2023-08-24T01:41:36;6.45;;;2.75;;
27833;SDS011;15200;50.570;7.244;2023-08-24T01:44:07;5.92;;;2.92;;
27833;SDS011;15200;50.570;7.244;2023-08-24T01:46:36;4.25;;;2.80;;
27833;SDS011;15200;50.570;7.244;2023-08-24T01:49:05;6.62;;;2.62;;
27833;SDS011;15200;50.570;7.244;2023-08-24T01:51:33;4.75;;;2.85;;
27833;SDS011;15200;50.570;7.244;2023-08-24T01:54:01;6.10;;;2.85;;
27833;SDS011;15200;50.570;7.244;2023-08-24T01:56:28;5.53;;;2.90;;
27833;SDS011;15200;50.570;7.244;2023-08-24T01:58:56;6.05;;;3.27;;
27833;SDS011;15200;50.570;7.244;2023-08-24T02:01:23;5.70;;;2.72;;
27833;SDS011;15200;50.570;7.244;2023-08-24T02:03:50;4.95;;;3.12;;
27833;SDS011;15200;50.570;7.244;2023-08-24T02:06:18;5.83;;;2.50;;
27833;SDS011;15200;50.570;7.244;2023-08-24T02:08:45;6.83;;;2.85;;
27833;SDS011;15200;50.570;7.244;2023-08-24T02:11:12;5.10;;;2.60;;
27833;SDS011;15200;50.570;7.244;2023-08-24T02:13:39;4.58;;;2.90;;
27833;SDS011;15200;50.570;7.244;2023-08-24T02:16:07;9.63;;;3.00;;
27833;SDS011;15200;50.570;7.244;2023-08-24T02:18:39;8.03;;;2.85;;
27833;SDS011;15200;50.570;7.244;2023-08-24T02:21:07;4.85;;;3.17;;
27833;SDS011;15200;50.570;7.244;2023-08-24T02:23:34;6.80;;;2.75;;
27833;SDS011;15200;50.570;7.244;2023-08-24T02:26:02;3.67;;;2.60;;
27833;SDS011;15200;50.570;7.244;2023-08-24T02:28:30;6.30;;;2.42;;
27833;SDS011;15200;50.570;7.244;2023-08-24T02:31:00;9.95;;;2.95;;
27833;SDS011;15200;50.570;7.244;2023-08-24T02:33:27;5.33;;;2.87;;
27833;SDS011;15200;50.570;7.244;2023-08-24T02:35:55;4.80;;;3.08;;
27833;SDS011;15200;50.570;7.244;2023-08-24T02:38:23;8.43;;;3.00;;
27833;SDS011;15200;50.570;7.244;2023-08-24T02:41:12;6.42;;;3.02;;
27833;SDS011;15200;50.570;7.244;2023-08-24T02:43:19;6.60;;;2.85;;
27833;SDS011;15200;50.570;7.244;2023-08-24T02:45:47;7.15;;;3.30;;
27833;SDS011;15200;50.570;7.244;2023-08-24T02:48:14;7.10;;;3.10;;
27833;SDS011;15200;50.570;7.244;2023-08-24T02:50:45;5.78;;;3.22;;
27833;SDS011;15200;50.570;7.244;2023-08-24T02:53:10;6.37;;;3.05;;
27833;SDS011;15200;50.570;7.244;2023-08-24T02:55:37;6.37;;;2.87;;
27833;SDS011;15200;50.570;7.244;2023-08-24T02:58:05;4.12;;;2.80;;
27833;SDS011;15200;50.570;7.244;2023-08-24T03:00:32;6.28;;;3.72;;
27833;SDS011;15200;50.570;7.244;2023-08-24T03:02:59;7.03;;;3.58;;
27833;SDS011;15200;50.570;7.244;2023-08-24T03:05:27;7.90;;;3.08;;
27833;SDS011;15200;50.570;7.244;2023-08-24T03:07:54;3.62;;;2.62;;
27833;SDS011;15200;50.570;7.244;2023-08-24T03:10:21;4.75;;;3.00;;
27833;SDS011;15200;50.570;7.244;2023-08-24T03:12:49;6.22;;;3.80;;
27833;SDS011;15200;50.570;7.244;2023-08-24T03:15:16;5.33;;;2.80;;
27833;SDS011;15200;50.570;7.244;2023-08-24T03:17:44;4.97;;;2.52;;
27833;SDS011;15200;50.570;7.244;2023-08-24T03:20:11;7.03;;;3.15;;
27833;SDS011;15200;50.570;7.244;2023-08-24T03:22:38;6.28;;;2.80;;
27833;SDS011;15200;50.570;7.244;2023-08-24T03:25:07;10.25;;;3.00;;
27833;SDS011;15200;50.570;7.244;2023-08-24T03:27:34;7.55;;;2.83;;
27833;SDS011;15200;50.570;7.244;2023-08-24T03:30:02;4.37;;;2.85;;
27833;SDS011;15200;50.570;7.244;2023-08-24T03:32:30;6.65;;;3.35;;
27833;SDS011;15200;50.570;7.244;2023-08-24T03:35:02;6.42;;;2.72;;
27833;SDS011;15200;50.570;7.244;2023-08-24T03:37:26;6.70;;;3.00;;
27833;SDS011;15200;50.570;7.244;2023-08-24T03:39:54;4.35;;;3.00;;
27833;SDS011;15200;50.570;7.244;2023-08-24T03:42:21;5.20;;;3.00;;
27833;SDS011;15200;50.570;7.244;2023-08-24T03:44:49;3.47;;;2.80;;
27833;SDS011;15200;50.570;7.244;2023-08-24T03:47:16;4.85;;;3.02;;
27833;SDS011;15200;50.570;7.244;2023-08-24T03:49:43;8.95;;;3.08;;
27833;SDS011;15200;50.570;7.244;2023-08-24T03:52:11;5.83;;;3.27;;
27833;SDS011;15200;50.570;7.244;2023-08-24T03:54:38;5.17;;;3.22;;
27833;SDS011;15200;50.570;7.244;2023-08-24T03:57:05;5.92;;;3.42;;
27833;SDS011;15200;50.570;7.244;2023-08-24T03:59:32;6.97;;;3.25;;
27833;SDS011;15200;50.570;7.244;2023-08-24T04:02:00;3.85;;;3.35;;
27833;SDS011;15200;50.570;7.244;2023-08-24T04:04:32;6.03;;;3.00;;
27833;SDS011;15200;50.570;7.244;2023-08-24T04:06:59;4.90;;;3.08;;
27833;SDS011;15200;50.570;7.244;2023-08-24T04:09:26;4.55;;;2.95;;
27833;SDS011;15200;50.570;7.244;2023-08-24T04:11:54;4.05;;;2.83;;
27833;SDS011;15200;50.570;7.244;2023-08-24T04:14:21;5.80;;;3.40;;
27833;SDS011;15200;50.570;7.244;2023-08-24T04:16:49;5.65;;;2.92;;
27833;SDS011;15200;50.570;7.244;2023-08-24T04:19:16;5.65;;;3.12;;
27833;SDS011;15200;50.570;7.244;2023-08-24T04:21:43;9.30;;;3.67;;
27833;SDS011;15200;50.570;7.244;2023-08-24T04:24:11;6.50;;;3.65;;
27833;SDS011;15200;50.570;7.244;2023-08-24T04:26:38;11.80;;;3.50;;
27833;SDS011;15200;50.570;7.244;2023-08-24T04:29:05;6.65;;;3.35;;
27833;SDS011;15200;50.570;7.244;2023-08-24T04:31:33;7.97;;;3.30;;
27833;SDS011;15200;50.570;7.244;2023-08-24T04:34:00;4.58;;;3.05;;
27833;SDS011;15200;50.570;7.244;2023-08-24T04:36:27;4.85;;;2.52;;
27833;SDS011;15200;50.570;7.244;2023-08-24T04:38:55;10.03;;;3.33;;
27833;SDS011;15200;50.570;7.244;2023-08-24T04:41:22;4.90;;;3.15;;
27833;SDS011;15200;50.570;7.244;2023-08-24T04:43:49;5.92;;;3.05;;
27833;SDS011;15200;50.570;7.244;2023-08-24T04:46:16;5.10;;;3.05;;
27833;SDS011;15200;50.570;7.244;2023-08-24T04:48:44;4.65;;;3.02;;
27833;SDS011;15200;50.570;7.244;2023-08-24T04:51:11;7.58;;;3.35;;
27833;SDS011;15200;50.570;7.244;2023-08-24T04:53:38;6.60;;;3.02;;
27833;SDS011;15200;50.570;7.244;2023-08-24T04:56:06;9.55;;;3.77;;
27833;SDS011;15200;50.570;7.244;2023-08-24T04:58:33;7.25;;;3.10;;
27833;SDS011;15200;50.570;7.244;2023-08-24T05:01:00;5.72;;;3.62;;
27833;SDS011;15200;50.570;7.244;2023-08-24T05:03:28;4.92;;;3.65;;
27833;SDS011;15200;50.570;7.244;2023-08-24T05:05:55;4.12;;;2.95;;
27833;SDS011;15200;50.570;7.244;2023-08-24T05:08:22;6.25;;;3.00;;
27833;SDS011;15200;50.570;7.244;2023-08-24T05:10:49;8.43;;;3.62;;
27833;SDS011;15200;50.570;7.244;2023-08-24T05:13:17;7.90;;;3.67;;
27833;SDS011;15200;50.570;7.244;2023-08-24T05:15:45;7.37;;;3.75;;
27833;SDS011;15200;50.570;7.244;2023-08-24T05:18:13;10.38;;;3.95;;
27833;SDS011;15200;50.570;7.244;2023-08-24T05:20:40;5.90;;;3.45;;
27833;SDS011;15200;50.570;7.244;2023-08-24T05:23:07;7.22;;;3.85;;
27833;SDS011;15200;50.570;7.244;2023-08-24T05:25:35;10.98;;;3.90;;
27833;SDS011;15200;50.570;7.244;2023-08-24T05:28:02;8.13;;;4.05;;
27833;SDS011;15200;50.570;7.244;2023-08-24T05:30:29;11.28;;;3.67;;
27833;SDS011;15200;50.570;7.244;2023-08-24T05:32:57;12.03;;;3.80;;
27833;SDS011;15200;50.570;7.244;2023-08-24T05:35:24;8.70;;;3.75;;
27833;SDS011;15200;50.570;7.244;2023-08-24T05:37:53;8.95;;;4.70;;
27833;SDS011;15200;50.570;7.244;2023-08-24T05:40:21;6.55;;;4.40;;
27833;SDS011;15200;50.570;7.244;2023-08-24T05:42:48;6.58;;;4.20;;
27833;SDS011;15200;50.570;7.244;2023-08-24T05:45:15;7.60;;;4.33;;
27833;SDS011;15200;50.570;7.244;2023-08-24T05:47:43;10.20;;;5.08;;
27833;SDS011;15200;50.570;7.244;2023-08-24T05:50:10;11.28;;;5.62;;
27833;SDS011;15200;50.570;7.244;2023-08-24T05:52:37;12.68;;;5.47;;
27833;SDS011;15200;50.570;7.244;2023-08-24T05:55:05;8.93;;;5.53;;
27833;SDS011;15200;50.570;7.244;2023-08-24T05:57:32;11.53;;;7.00;;
27833;SDS011;15200;50.570;7.244;2023-08-24T05:59:59;10.75;;;5.25;;
27833;SDS011;15200;50.570;7.244;2023-08-24T06:02:27;8.15;;;4.80;;
27833;SDS011;15200;50.570;7.244;2023-08-24T06:04:54;9.40;;;5.30;;
27833;SDS011;15200;50.570;7.244;2023-08-24T06:07:21;8.23;;;4.50;;
27833;SDS011;15200;50.570;7.244;2023-08-24T06:09:49;10.00;;;4.17;;
27833;SDS011;15200;50.570;7.244;2023-08-24T06:12:16;8.55;;;4.65;;
27833;SDS011;15200;50.570;7.244;2023-08-24T06:14:43;7.92;;;4.95;;
27833;SDS011;15200;50.570;7.244;2023-08-24T06:17:11;7.83;;;4.72;;
27833;SDS011;15200;50.570;7.244;2023-08-24T06:19:38;8.58;;;4.58;;
27833;SDS011;15200;50.570;7.244;2023-08-24T06:22:05;7.47;;;4.72;;
27833;SDS011;15200;50.570;7.244;2023-08-24T06:24:32;12.40;;;6.20;;
27833;SDS011;15200;50.570;7.244;2023-08-24T06:27:00;8.20;;;5.00;;
27833;SDS011;15200;50.570;7.244;2023-08-24T06:29:32;8.38;;;4.95;;
27833;SDS011;15200;50.570;7.244;2023-08-24T06:31:56;7.35;;;4.70;;
27833;SDS011;15200;50.570;7.244;2023-08-24T06:34:23;7.70;;;5.15;;
27833;SDS011;15200;50.570;7.244;2023-08-24T06:36:52;5.72;;;5.00;;
27833;SDS011;15200;50.570;7.244;2023-08-24T06:39:19;8.73;;;4.92;;
27833;SDS011;15200;50.570;7.244;2023-08-24T06:41:47;6.87;;;4.58;;
27833;SDS011;15200;50.570;7.244;2023-08-24T06:44:14;8.30;;;5.30;;
27833;SDS011;15200;50.570;7.244;2023-08-24T06:46:42;14.83;;;6.22;;
27833;SDS011;15200;50.570;7.244;2023-08-24T06:49:09;9.55;;;5.30;;
27833;SDS011;15200;50.570;7.244;2023-08-24T06:51:36;11.35;;;6.33;;
27833;SDS011;15200;50.570;7.244;2023-08-24T06:54:03;12.03;;;5.22;;
27833;SDS011;15200;50.570;7.244;2023-08-24T06:56:31;8.43;;;5.42;;
27833;SDS011;15200;50.570;7.244;2023-08-24T06:58:58;7.42;;;5.47;;
27833;SDS011;15200;50.570;7.244;2023-08-24T07:01:25;9.88;;;5.35;;
27833;SDS011;15200;50.570;7.244;2023-08-24T07:03:53;11.25;;;5.92;;
27833;SDS011;15200;50.570;7.244;2023-08-24T07:06:20;9.93;;;5.80;;
27833;SDS011;15200;50.570;7.244;2023-08-24T07:08:47;8.68;;;5.72;;
27833;SDS011;15200;50.570;7.244;2023-08-24T07:11:16;14.00;;;5.47;;
27833;SDS011;15200;50.570;7.244;2023-08-24T07:13:43;10.40;;;5.17;;
27833;SDS011;15200;50.570;7.244;2023-08-24T07:16:12;9.48;;;4.80;;
27833;SDS011;15200;50.570;7.244;2023-08-24T07:18:39;9.30;;;4.40;;
27833;SDS011;15200;50.570;7.244;2023-08-24T07:21:07;7.00;;;4.03;;
27833;SDS011;15200;50.570;7.244;2023-08-24T07:23:34;9.95;;;4.42;;
27833;SDS011;15200;50.570;7.244;2023-08-24T07:26:01;5.17;;;3.42;;
27833;SDS011;15200;50.570;7.244;2023-08-24T07:28:29;5.10;;;3.17;;
27833;SDS011;15200;50.570;7.244;2023-08-24T07:30:56;9.10;;;4.03;;
27833;SDS011;15200;50.570;7.244;2023-08-24T07:33:26;9.95;;;3.85;;
27833;SDS011;15200;50.570;7.244;2023-08-24T07:35:53;9.48;;;4.22;;
27833;SDS011;15200;50.570;7.244;2023-08-24T07:38:20;7.33;;;3.90;;
27833;SDS011;15200;50.570;7.244;2023-08-24T07:40:48;5.37;;;3.70;;
27833;SDS011;15200;50.570;7.244;2023-08-24T07:43:15;16.77;;;3.80;;
27833;SDS011;15200;50.570;7.244;2023-08-24T07:45:42;5.55;;;3.42;;
27833;SDS011;15200;50.570;7.244;2023-08-24T07:48:10;6.85;;;3.22;;
27833;SDS011;15200;50.570;7.244;2023-08-24T07:50:37;7.40;;;3.25;;
27833;SDS011;15200;50.570;7.244;2023-08-24T07:53:04;7.85;;;3.77;;
27833;SDS011;15200;50.570;7.244;2023-08-24T07:55:32;5.08;;;3.10;;
27833;SDS011;15200;50.570;7.244;2023-08-24T07:57:59;5.05;;;3.25;;
27833;SDS011;15200;50.570;7.244;2023-08-24T08:00:26;5.85;;;2.95;;
27833;SDS011;15200;50.570;7.244;2023-08-24T08:02:54;5.45;;;3.17;;
27833;SDS011;15200;50.570;7.244;2023-08-24T08:05:21;7.65;;;2.70;;
27833;SDS011;15200;50.570;7.244;2023-08-24T08:07:49;5.72;;;2.90;;
27833;SDS011;15200;50.570;7.244;2023-08-24T08:10:16;12.47;;;3.33;;
27833;SDS011;15200;50.570;7.244;2023-08-24T08:12:43;7.45;;;3.20;;
27833;SDS011;15200;50.570;7.244;2023-08-24T08:15:11;5.03;;;3.02;;
27833;SDS011;15200;50.570;7.244;2023-08-24T08:17:38;4.87;;;2.70;;
27833;SDS011;15200;50.570;7.244;2023-08-24T08:20:06;4.97;;;3.02;;
27833;SDS011;15200;50.570;7.244;2023-08-24T08:22:36;6.92;;;3.08;;
27833;SDS011;15200;50.570;7.244;2023-08-24T08:25:05;4.58;;;2.67;;
27833;SDS011;15200;50.570;7.244;2023-08-24T08:27:32;4.90;;;2.62;;
27833;SDS011;15200;50.570;7.244;2023-08-24T08:30:00;7.65;;;2.80;;
27833;SDS011;15200;50.570;7.244;2023-08-24T08:32:27;4.80;;;2.70;;
27833;SDS011;15200;50.570;7.244;2023-08-24T08:34:55;8.65;;;2.67;;
27833;SDS011;15200;50.570;7.244;2023-08-24T08:37:26;7.20;;;2.98;;
27833;SDS011;15200;50.570;7.244;2023-08-24T08:39:54;9.65;;;2.80;;
27833;SDS011;15200;50.570;7.244;2023-08-24T08:42:21;5.12;;;2.50;;
27833;SDS011;15200;50.570;7.244;2023-08-24T08:44:50;5.03;;;2.37;;
27833;SDS011;15200;50.570;7.244;2023-08-24T08:47:20;3.95;;;2.60;;
27833;SDS011;15200;50.570;7.244;2023-08-24T08:49:48;6.15;;;2.72;;
27833;SDS011;15200;50.570;7.244;2023-08-24T08:52:16;6.35;;;2.77;;
27833;SDS011;15200;50.570;7.244;2023-08-24T08:54:43;3.67;;;2.50;;
27833;SDS011;15200;50.570;7.244;2023-08-24T08:57:11;4.78;;;2.30;;
27833;SDS011;15200;50.570;7.244;2023-08-24T08:59:38;8.53;;;2.35;;
27833;SDS011;15200;50.570;7.244;2023-08-24T09:02:06;3.83;;;2.30;;
27833;SDS011;15200;50.570;7.244;2023-08-24T09:04:34;6.90;;;2.90;;
27833;SDS011;15200;50.570;7.244;2023-08-24T09:07:02;5.92;;;2.52;;
27833;SDS011;15200;50.570;7.244;2023-08-24T09:09:31;3.87;;;2.33;;
27833;SDS011;15200;50.570;7.244;2023-08-24T09:11:59;13.30;;;2.60;;
27833;SDS011;15200;50.570;7.244;2023-08-24T09:14:27;3.62;;;2.42;;
27833;SDS011;15200;50.570;7.244;2023-08-24T09:16:54;4.65;;;2.42;;
27833;SDS011;15200;50.570;7.244;2023-08-24T09:19:27;3.92;;;2.27;;
27833;SDS011;15200;50.570;7.244;2023-08-24T09:21:54;8.03;;;2.35;;
27833;SDS011;15200;50.570;7.244;2023-08-24T09:24:19;3.75;;;2.17;;
27833;SDS011;15200;50.570;7.244;2023-08-24T09:26:48;3.83;;;2.20;;
27833;SDS011;15200;50.570;7.244;2023-08-24T09:29:15;5.65;;;1.92;;
27833;SDS011;15200;50.570;7.244;2023-08-24T09:31:43;4.47;;;2.00;;
27833;SDS011;15200;50.570;7.244;2023-08-24T09:34:13;5.87;;;2.90;;
27833;SDS011;15200;50.570;7.244;2023-08-24T09:36:40;6.65;;;2.42;;
27833;SDS011;15200;50.570;7.244;2023-08-24T09:39:08;6.08;;;2.42;;
27833;SDS011;15200;50.570;7.244;2023-08-24T09:41:43;8.33;;;2.65;;
27833;SDS011;15200;50.570;7.244;2023-08-24T09:44:10;5.92;;;2.72;;
27833;SDS011;15200;50.570;7.244;2023-08-24T09:46:39;6.28;;;2.40;;
27833;SDS011;15200;50.570;7.244;2023-08-24T09:49:08;7.03;;;2.40;;
27833;SDS011;15200;50.570;7.244;2023-08-24T09:51:36;4.80;;;2.20;;
27833;SDS011;15200;50.570;7.244;2023-08-24T09:54:04;5.10;;;2.20;;
27833;SDS011;15200;50.570;7.244;2023-08-24T09:56:35;6.62;;;2.00;;
27833;SDS011;15200;50.570;7.244;2023-08-24T09:59:05;5.75;;;2.17;;
27833;SDS011;15200;50.570;7.244;2023-08-24T10:01:32;4.65;;;2.40;;
27833;SDS011;15200;50.570;7.244;2023-08-24T10:03:59;5.22;;;2.50;;
27833;SDS011;15200;50.570;7.244;2023-08-24T10:06:27;2.20;;;1.90;;
27833;SDS011;15200;50.570;7.244;2023-08-24T10:08:57;3.98;;;2.40;;
27833;SDS011;15200;50.570;7.244;2023-08-24T10:11:26;3.67;;;2.15;;
27833;SDS011;15200;50.570;7.244;2023-08-24T10:14:07;2.45;;;1.80;;
27833;SDS011;15200;50.570;7.244;2023-08-24T10:16:35;4.22;;;2.10;;
27833;SDS011;15200;50.570;7.244;2023-08-24T10:19:03;5.83;;;2.75;;
27833;SDS011;15200;50.570;7.244;2023-08-24T10:21:31;5.12;;;2.15;;
27833;SDS011;15200;50.570;7.244;2023-08-24T10:23:58;4.97;;;2.33;;
27833;SDS011;15200;50.570;7.244;2023-08-24T10:26:27;4.87;;;2.30;;
27833;SDS011;15200;50.570;7.244;2023-08-24T10:28:54;5.58;;;2.27;;
27833;SDS011;15200;50.570;7.244;2023-08-24T10:31:22;2.55;;;2.22;;
27833;SDS011;15200;50.570;7.244;2023-08-24T10:33:50;4.50;;;2.25;;
27833;SDS011;15200;50.570;7.244;2023-08-24T10:36:18;5.65;;;2.40;;
27833;SDS011;15200;50.570;7.244;2023-08-24T10:38:45;6.58;;;2.42;;
27833;SDS011;15200;50.570;7.244;2023-08-24T10:41:13;5.50;;;2.80;;
27833;SDS011;15200;50.570;7.244;2023-08-24T10:43:40;7.35;;;2.47;;
27833;SDS011;15200;50.570;7.244;2023-08-24T10:46:11;3.05;;;2.25;;
27833;SDS011;15200;50.570;7.244;2023-08-24T10:53:44;4.62;;;2.75;;
27833;SDS011;15200;50.570;7.244;2023-08-24T10:56:12;5.35;;;2.67;;
27833;SDS011;15200;50.570;7.244;2023-08-24T10:58:39;7.78;;;2.72;;
27833;SDS011;15200;50.570;7.244;2023-08-24T11:01:07;4.60;;;2.27;;
27833;SDS011;15200;50.570;7.244;2023-08-24T11:03:34;4.65;;;2.75;;
27833;SDS011;15200;50.570;7.244;2023-08-24T11:06:16;4.65;;;2.35;;
27833;SDS011;15200;50.570;7.244;2023-08-24T11:08:45;2.87;;;2.17;;
27833;SDS011;15200;50.570;7.244;2023-08-24T11:11:23;2.87;;;2.00;;
27833;SDS011;15200;50.570;7.244;2023-08-24T11:16:38;5.03;;;2.33;;
27833;SDS011;15200;50.570;7.244;2023-08-24T11:19:06;6.00;;;2.10;;
27833;SDS011;15200;50.570;7.244;2023-08-24T11:21:33;4.10;;;2.15;;
27833;SDS011;15200;50.570;7.244;2023-08-24T11:24:01;5.25;;;2.00;;
27833;SDS011;15200;50.570;7.244;2023-08-24T11:26:32;2.42;;;1.85;;
27833;SDS011;15200;50.570;7.244;2023-08-24T11:28:59;7.12;;;3.35;;
27833;SDS011;15200;50.570;7.244;2023-08-24T11:31:26;8.40;;;3.75;;
27833;SDS011;15200;50.570;7.244;2023-08-24T11:33:54;10.78;;;4.37;;
27833;SDS011;15200;50.570;7.244;2023-08-24T11:36:22;7.15;;;4.10;;
27833;SDS011;15200;50.570;7.244;2023-08-24T11:38:52;11.73;;;3.10;;
27833;SDS011;15200;50.570;7.244;2023-08-24T11:41:19;7.20;;;2.92;;
27833;SDS011;15200;50.570;7.244;2023-08-24T11:43:48;7.78;;;2.85;;
27833;SDS011;15200;50.570;7.244;2023-08-24T11:46:18;5.95;;;2.55;;
27833;SDS011;15200;50.570;7.244;2023-08-24T11:48:45;13.60;;;3.50;;
27833;SDS011;15200;50.570;7.244;2023-08-24T11:51:13;6.62;;;2.60;;
27833;SDS011;15200;50.570;7.244;2023-08-24T11:53:44;10.68;;;2.40;;
27833;SDS011;15200;50.570;7.244;2023-08-24T11:56:12;8.60;;;2.70;;
27833;SDS011;15200;50.570;7.244;2023-08-24T11:58:39;7.60;;;2.37;;
27833;SDS011;15200;50.570;7.244;2023-08-24T12:01:08;9.60;;;2.62;;
27833;SDS011;15200;50.570;7.244;2023-08-24T12:03:36;3.30;;;2.35;;
27833;SDS011;15200;50.570;7.244;2023-08-24T12:06:10;4.00;;;2.25;;
27833;SDS011;15200;50.570;7.244;2023-08-24T12:08:39;4.95;;;2.08;;
27833;SDS011;15200;50.570;7.244;2023-08-24T12:13:50;3.65;;;1.98;;
27833;SDS011;15200;50.570;7.244;2023-08-24T12:16:13;3.85;;;1.98;;
27833;SDS011;15200;50.570;7.244;2023-08-24T12:21:17;3.33;;;2.20;;
27833;SDS011;15200;50.570;7.244;2023-08-24T12:24:07;3.50;;;2.40;;
27833;SDS011;15200;50.570;7.244;2023-08-24T12:26:17;6.25;;;2.40;;
27833;SDS011;15200;50.570;7.244;2023-08-24T12:28:48;5.33;;;2.50;;
27833;SDS011;15200;50.570;7.244;2023-08-24T12:31:14;5.25;;;2.22;;
27833;SDS011;15200;50.570;7.244;2023-08-24T12:33:41;6.75;;;2.20;;
27833;SDS011;15200;50.570;7.244;2023-08-24T12:36:09;5.08;;;2.15;;
27833;SDS011;15200;50.570;7.244;2023-08-24T12:38:36;4.83;;;2.50;;
27833;SDS011;15200;50.570;7.244;2023-08-24T12:41:05;7.08;;;2.40;;
27833;SDS011;15200;50.570;7.244;2023-08-24T12:43:32;7.90;;;2.80;;
27833;SDS011;15200;50.570;7.244;2023-08-24T12:45:59;3.95;;;2.87;;
27833;SDS011;15200;50.570;7.244;2023-08-24T12:48:27;4.58;;;2.95;;
27833;SDS011;15200;50.570;7.244;2023-08-24T12:50:54;6.45;;;3.05;;
27833;SDS011;15200;50.570;7.244;2023-08-24T12:53:21;4.58;;;2.85;;
27833;SDS011;15200;50.570;7.244;2023-08-24T12:55:49;3.08;;;2.40;;
27833;SDS011;15200;50.570;7.244;2023-08-24T12:58:16;7.00;;;2.67;;
27833;SDS011;15200;50.570;7.244;2023-08-24T13:00:44;4.28;;;2.95;;
27833;SDS011;15200;50.570;7.244;2023-08-24T13:03:11;6.10;;;3.10;;
27833;SDS011;15200;50.570;7.244;2023-08-24T13:05:39;5.92;;;3.22;;
27833;SDS011;15200;50.570;7.244;2023-08-24T13:08:06;6.20;;;3.40;;
27833;SDS011;15200;50.570;7.244;2023-08-24T13:10:33;5.62;;;3.50;;
27833;SDS011;15200;50.570;7.244;2023-08-24T13:13:03;5.97;;;3.35;;
27833;SDS011;15200;50.570;7.244;2023-08-24T13:15:30;4.97;;;3.47;;
27833;SDS011;15200;50.570;7.244;2023-08-24T13:17:57;6.55;;;3.40;;
27833;SDS011;15200;50.570;7.244;2023-08-24T13:20:25;5.67;;;3.25;;
27833;SDS011;15200;50.570;7.244;2023-08-24T13:22:52;5.03;;;3.25;;
27833;SDS011;15200;50.570;7.244;2023-08-24T13:25:20;8.05;;;3.60;;
27833;SDS011;15200;50.570;7.244;2023-08-24T13:27:47;6.10;;;3.17;;
27833;SDS011;15200;50.570;7.244;2023-08-24T13:30:14;7.40;;;3.87;;
27833;SDS011;15200;50.570;7.244;2023-08-24T13:32:42;6.42;;;3.40;;
27833;SDS011;15200;50.570;7.244;2023-08-24T13:35:09;6.80;;;3.92;;
27833;SDS011;15200;50.570;7.244;2023-08-24T13:37:36;5.97;;;3.87;;
27833;SDS011;15200;50.570;7.244;2023-08-24T13:40:04;6.12;;;3.80;;
27833;SDS011;15200;50.570;7.244;2023-08-24T13:42:31;5.12;;;3.65;;
27833;SDS011;15200;50.570;7.244;2023-08-24T13:44:59;4.37;;;3.47;;
27833;SDS011;15200;50.570;7.244;2023-08-24T13:47:26;10.28;;;4.20;;
27833;SDS011;15200;50.570;7.244;2023-08-24T13:49:53;6.97;;;3.80;;
27833;SDS011;15200;50.570;7.244;2023-08-24T13:52:20;6.95;;;3.90;;
27833;SDS011;15200;50.570;7.244;2023-08-24T13:54:48;6.65;;;3.62;;
27833;SDS011;15200;50.570;7.244;2023-08-24T13:57:15;10.88;;;3.62;;
27833;SDS011;15200;50.570;7.244;2023-08-24T13:59:42;7.65;;;3.80;;
27833;SDS011;15200;50.570;7.244;2023-08-24T14:02:10;5.33;;;3.92;;
27833;SDS011;15200;50.570;7.244;2023-08-24T14:04:38;6.92;;;3.70;;
27833;SDS011;15200;50.570;7.244;2023-08-24T14:07:06;12.45;;;4.12;;
27833;SDS011;15200;50.570;7.244;2023-08-24T14:09:33;9.60;;;3.83;;
27833;SDS011;15200;50.570;7.244;2023-08-24T14:12:00;8.40;;;3.75;;
27833;SDS011;15200;50.570;7.244;2023-08-24T14:14:27;7.45;;;3.92;;
27833;SDS011;15200;50.570;7.244;2023-08-24T14:16:55;4.10;;;2.98;;
27833;SDS011;15200;50.570;7.244;2023-08-24T14:19:22;5.33;;;3.10;;
27833;SDS011;15200;50.570;7.244;2023-08-24T14:21:53;7.35;;;2.90;;
27833;SDS011;15200;50.570;7.244;2023-08-24T14:24:20;6.28;;;3.17;;
27833;SDS011;15200;50.570;7.244;2023-08-24T14:26:48;5.10;;;2.80;;
27833;SDS011;15200;50.570;7.244;2023-08-24T14:29:15;5.70;;;3.00;;
27833;SDS011;15200;50.570;7.244;2023-08-24T14:31:43;6.35;;;2.85;;
27833;SDS011;15200;50.570;7.244;2023-08-24T14:34:10;6.17;;;3.50;;
27833;SDS011;15200;50.570;7.244;2023-08-24T14:36:37;5.33;;;2.87;;
27833;SDS011;15200;50.570;7.244;2023-08-24T14:39:04;4.05;;;2.87;;
27833;SDS011;15200;50.570;7.244;2023-08-24T14:41:33;8.60;;;3.42;;
27833;SDS011;15200;50.570;7.244;2023-08-24T14:44:00;6.65;;;3.65;;
27833;SDS011;15200;50.570;7.244;2023-08-24T14:46:28;5.22;;;2.87;;
27833;SDS011;15200;50.570;7.244;2023-08-24T14:48:55;8.20;;;3.05;;
27833;SDS011;15200;50.570;7.244;2023-08-24T14:51:22;7.25;;;3.05;;
27833;SDS011;15200;50.570;7.244;2023-08-24T14:53:50;6.22;;;3.05;;
27833;SDS011;15200;50.570;7.244;2023-08-24T14:56:17;7.72;;;2.92;;
27833;SDS011;15200;50.570;7.244;2023-08-24T14:58:44;5.47;;;2.95;;
27833;SDS011;15200;50.570;7.244;2023-08-24T15:01:12;6.90;;;3.45;;